Terminal Aerodrome Forecast
Issued by NWS Wilmington, NC

Home | Current Version | Previous Version | Text Only | Print | Product List | Glossary On
Versions: 1 2 3 4 5 6 7 8 9 10 11 12 13 14 15 16 17 18 19 20 21
000
FTUS42 KILM 221300 AAC
TAFLBT
TAF AMD
KLBT 221300Z 2213/2312 00000KT P6SM BKN002
     FM221400 00000KT P6SM SCT007
     FM221430 VRB03KT P6SM SCT010
     FM222000 21006KT P6SM BKN035
     FM222300 20007KT P6SM SCT250=

USA.gov is the U.S. government's official web portal to all federal, state and local government web resources and services.